createdAt,value
2022-10-20T04:00:27.007Z,6.50
2022-10-20T04:02:56.560Z,6.30
2022-10-20T04:05:24.668Z,6.40
2022-10-20T04:07:52.675Z,6.30
2022-10-20T04:10:20.641Z,6.30
2022-10-20T04:12:48.608Z,6.40
2022-10-20T04:15:18.415Z,6.40
2022-10-20T04:17:46.468Z,6.40
2022-10-20T04:20:15.852Z,6.30
2022-10-20T04:22:43.838Z,6.20
2022-10-20T04:25:13.974Z,6.20
2022-10-20T04:27:43.032Z,6.10
2022-10-20T04:30:11.959Z,6.20
2022-10-20T04:32:40.028Z,6.20
2022-10-20T04:35:09.461Z,6.10
2022-10-20T04:37:39.388Z,6.20
2022-10-20T04:40:09.231Z,6.20
2022-10-20T04:42:37.243Z,6.20
2022-10-20T04:45:06.020Z,6.20
2022-10-20T04:47:34.702Z,6.40
2022-10-20T04:50:02.978Z,6.20
2022-10-20T04:52:30.956Z,6.10
2022-10-20T04:55:00.327Z,6.20
2022-10-20T04:57:28.863Z,6.10
2022-10-20T04:59:56.892Z,5.80
2022-10-20T05:02:24.966Z,6.00
2022-10-20T05:04:52.953Z,6.20
2022-10-20T05:07:23.088Z,6.30
2022-10-20T05:09:51.095Z,5.80
2022-10-20T05:12:20.382Z,6.20
2022-10-20T05:14:48.367Z,6.10
2022-10-20T05:17:16.341Z,6.20
2022-10-20T05:19:45.671Z,5.90
2022-10-20T05:22:13.711Z,5.60
2022-10-20T05:24:41.776Z,5.90
2022-10-20T05:27:09.851Z,5.90
2022-10-20T05:29:39.259Z,5.90
2022-10-20T05:32:07.167Z,5.90
2022-10-20T05:34:35.217Z,6.20
2022-10-20T05:37:03.230Z,6.20
2022-10-20T05:39:33.408Z,6.20
2022-10-20T05:42:01.416Z,6.30
2022-10-20T05:44:29.419Z,6.10
2022-10-20T05:46:58.693Z,6.10
2022-10-20T05:49:26.691Z,6.00
2022-10-20T05:51:54.653Z,6.20
2022-10-20T05:54:23.183Z,6.30
2022-10-20T05:56:51.223Z,6.30
2022-10-20T05:59:19.215Z,6.40
2022-10-20T06:01:50.385Z,6.50
2022-10-20T06:04:23.434Z,6.70
2022-10-20T06:06:51.991Z,6.60
2022-10-20T06:09:21.256Z,6.60
2022-10-20T06:11:49.821Z,6.70
2022-10-20T06:14:18.473Z,6.90
2022-10-20T06:16:47.007Z,7.00
2022-10-20T06:19:15.010Z,7.00
2022-10-20T06:21:44.331Z,6.80
2022-10-20T06:24:13.258Z,6.90
2022-10-20T06:26:41.503Z,6.90
2022-10-20T06:29:13.293Z,6.90
2022-10-20T06:31:44.522Z,6.80
2022-10-20T06:34:17.080Z,6.90
2022-10-20T06:36:47.219Z,6.90
2022-10-20T06:39:18.997Z,7.00
2022-10-20T06:41:50.426Z,7.20
2022-10-20T06:44:18.907Z,7.00
2022-10-20T06:46:47.119Z,7.00
2022-10-20T06:49:15.942Z,7.20
2022-10-20T06:51:43.958Z,7.30
2022-10-20T06:54:13.277Z,7.70
2022-10-20T06:56:41.642Z,7.80
2022-10-20T06:59:09.763Z,7.80
2022-10-20T07:01:40.553Z,7.60
2022-10-20T07:04:12.438Z,8.00
2022-10-20T07:06:43.037Z,8.00
2022-10-20T07:09:18.185Z,8.00
2022-10-20T07:11:47.202Z,7.90
2022-10-20T07:14:15.667Z,8.00
2022-10-20T07:16:43.734Z,8.20
2022-10-20T07:19:11.841Z,8.40
2022-10-20T07:21:42.981Z,8.60
2022-10-20T07:24:16.776Z,8.80
2022-10-20T07:26:45.080Z,8.80
2022-10-20T07:29:14.719Z,8.90
2022-10-20T07:31:46.389Z,9.00
2022-10-20T07:34:26.254Z,8.70
2022-10-20T07:36:56.511Z,9.30
2022-10-20T07:39:26.926Z,9.30
2022-10-20T07:41:55.407Z,9.50
2022-10-20T07:44:23.671Z,9.40
2022-10-20T07:46:51.750Z,9.50
2022-10-20T07:52:07.801Z,9.70
2022-10-20T07:54:37.213Z,9.80
2022-10-20T07:57:05.351Z,9.80
2022-10-20T07:59:33.466Z,9.60
2022-10-20T08:02:01.457Z,9.60
2022-10-20T08:04:31.699Z,10.10
2022-10-20T08:07:00.045Z,10.20
2022-10-20T08:09:28.275Z,10.20
2022-10-20T08:11:58.497Z,10.30
2022-10-20T08:14:27.800Z,10.60
2022-10-20T08:17:02.181Z,10.80
2022-10-20T08:22:13.151Z,10.70
2022-10-20T08:24:41.153Z,10.60
2022-10-20T08:27:10.658Z,10.60
2022-10-20T08:29:38.909Z,10.80
2022-10-20T08:32:07.040Z,11.20
2022-10-20T08:34:35.103Z,11.60
2022-10-20T08:37:03.084Z,11.70
2022-10-20T08:39:31.333Z,11.80
2022-10-20T08:42:08.540Z,12.00
2022-10-20T08:44:41.315Z,12.40
2022-10-20T08:47:27.867Z,12.60
2022-10-20T08:49:59.408Z,12.40
2022-10-20T08:52:28.365Z,12.70
2022-10-20T08:54:58.620Z,13.10
2022-10-20T08:57:33.323Z,13.00
2022-10-20T09:00:18.637Z,13.20
2022-10-20T09:02:47.856Z,12.80
2022-10-20T09:05:19.675Z,13.00
2022-10-20T09:07:50.232Z,13.60
2022-10-20T09:10:32.204Z,13.70
2022-10-20T09:13:01.935Z,14.00
2022-10-20T09:15:32.132Z,13.90
2022-10-20T09:18:04.913Z,14.50
2022-10-20T09:20:43.607Z,14.60
2022-10-20T09:23:35.512Z,14.50
2022-10-20T09:26:03.639Z,14.60
2022-10-20T09:28:38.537Z,15.10
2022-10-20T09:31:33.060Z,15.30
2022-10-20T09:34:01.679Z,15.30
2022-10-20T09:36:35.772Z,15.20
2022-10-20T09:39:05.159Z,15.60
2022-10-20T09:41:35.894Z,15.60
2022-10-20T09:44:09.734Z,15.60
2022-10-20T09:46:48.591Z,15.00
2022-10-20T09:49:26.732Z,15.10
2022-10-20T09:51:54.993Z,16.30
2022-10-20T09:54:26.623Z,16.20
2022-10-20T09:57:04.588Z,16.00
2022-10-20T09:59:37.976Z,16.60
2022-10-20T10:02:32.732Z,16.20
2022-10-20T10:05:20.909Z,16.40
2022-10-20T10:08:00.110Z,17.00
2022-10-20T10:10:31.937Z,17.10
2022-10-20T10:13:03.896Z,16.50
2022-10-20T10:15:36.978Z,17.30
2022-10-20T10:18:22.410Z,16.90
2022-10-20T10:21:01.297Z,17.80
2022-10-20T10:23:31.257Z,18.00
2022-10-20T10:26:02.214Z,17.60
2022-10-20T10:28:41.970Z,17.30
2022-10-20T10:31:25.086Z,18.20
2022-10-20T10:34:03.489Z,18.30
2022-10-20T10:36:35.119Z,18.70
2022-10-20T10:39:06.557Z,19.10
2022-10-20T10:42:01.204Z,19.40
2022-10-20T10:44:52.822Z,19.60
2022-10-20T10:47:45.327Z,20.00
2022-10-20T10:50:30.651Z,20.10
2022-10-20T10:53:26.533Z,19.90
2022-10-20T10:56:03.393Z,19.60
2022-10-20T10:58:46.161Z,19.50
2022-10-20T11:01:50.407Z,20.00
2022-10-20T11:05:08.610Z,19.50
2022-10-20T11:07:44.036Z,19.40
2022-10-20T11:10:22.108Z,19.90
2022-10-20T11:13:14.950Z,20.60
2022-10-20T11:16:03.456Z,20.50
2022-10-20T11:19:08.636Z,21.50
2022-10-20T11:21:49.574Z,21.70
2022-10-20T11:24:49.461Z,21.60
2022-10-20T11:27:21.636Z,22.10
2022-10-20T11:29:54.334Z,22.40
2022-10-20T11:32:31.872Z,22.50
2022-10-20T11:35:08.703Z,22.80
2022-10-20T11:37:46.295Z,23.10
2022-10-20T11:40:24.386Z,24.70
2022-10-20T11:43:08.774Z,24.40
2022-10-20T11:45:49.961Z,24.60
2022-10-20T11:48:26.764Z,25.30
2022-10-20T11:51:30.802Z,24.90
2022-10-20T11:54:35.724Z,25.90
2022-10-20T11:57:25.031Z,27.10
2022-10-20T12:00:21.096Z,25.00
2022-10-20T12:03:42.533Z,25.80
2022-10-20T12:06:56.700Z,26.90
2022-10-20T12:09:48.774Z,26.90
2022-10-20T12:12:26.837Z,26.90
2022-10-20T12:15:00.573Z,27.20
2022-10-20T12:17:36.400Z,27.50
2022-10-20T12:21:01.294Z,27.80
2022-10-20T12:24:07.554Z,24.30
2022-10-20T12:27:22.795Z,24.80
2022-10-20T12:30:03.933Z,25.40
2022-10-20T12:33:01.017Z,24.80
2022-10-20T12:36:02.582Z,27.00
2022-10-20T12:38:37.423Z,26.30
2022-10-20T12:41:09.115Z,26.90
2022-10-20T12:43:50.014Z,29.50
2022-10-20T12:46:23.166Z,29.30
2022-10-20T12:48:59.846Z,30.40
2022-10-20T12:51:36.685Z,32.50
2022-10-20T12:54:18.703Z,31.90
2022-10-20T12:56:46.941Z,30.30
2022-10-20T12:59:42.985Z,29.70
2022-10-20T13:02:33.972Z,30.10
2022-10-20T13:05:46.436Z,29.70
2022-10-20T13:08:34.369Z,31.20
2022-10-20T13:11:44.424Z,30.50
2022-10-20T13:14:52.315Z,30.70
2022-10-20T13:17:38.146Z,32.30
2022-10-20T13:20:28.506Z,31.70
2022-10-20T13:22:57.845Z,31.60
2022-10-20T13:25:39.838Z,30.70
2022-10-20T13:28:23.555Z,30.50
2022-10-20T13:31:22.051Z,30.10
2022-10-20T13:34:06.224Z,28.20
2022-10-20T13:36:53.157Z,27.30
2022-10-20T13:39:30.381Z,28.60
2022-10-20T13:42:16.912Z,31.60
2022-10-20T13:45:03.125Z,30.60
2022-10-20T13:47:49.928Z,29.60
2022-10-20T13:50:23.308Z,30.20
2022-10-20T13:52:55.571Z,30.50
2022-10-20T13:55:27.109Z,30.90
2022-10-20T13:57:58.789Z,30.50
2022-10-20T14:00:31.347Z,31.60
2022-10-20T14:03:02.442Z,30.20
2022-10-20T14:05:38.544Z,28.40
2022-10-20T14:08:11.572Z,28.30
2022-10-20T14:10:49.036Z,29.00
2022-10-20T14:13:20.932Z,25.80
2022-10-20T14:15:54.408Z,25.30
2022-10-20T14:18:26.827Z,25.40
2022-10-20T14:20:57.721Z,25.60
2022-10-20T14:23:27.434Z,25.90
2022-10-20T14:25:57.791Z,25.60
2022-10-20T14:28:36.694Z,26.80
2022-10-20T14:31:08.996Z,24.80
2022-10-20T14:33:44.082Z,24.10
2022-10-20T14:36:21.146Z,26.00
2022-10-20T14:38:52.538Z,26.90
2022-10-20T14:41:27.428Z,27.50
2022-10-20T14:44:05.037Z,26.40
2022-10-20T14:46:41.924Z,26.30
2022-10-20T14:49:16.926Z,27.10
2022-10-20T14:51:55.867Z,27.40
2022-10-20T14:54:36.165Z,26.90
2022-10-20T14:57:43.017Z,25.50
2022-10-20T15:00:37.118Z,24.40
2022-10-20T15:03:10.264Z,24.50
2022-10-20T15:05:44.213Z,23.80
2022-10-20T15:08:22.771Z,22.40
2022-10-20T15:10:50.928Z,22.90
2022-10-20T15:13:29.079Z,23.00
2022-10-20T15:15:58.614Z,23.10
2022-10-20T15:18:30.337Z,23.20
2022-10-20T15:20:58.432Z,22.50
2022-10-20T15:23:29.165Z,21.80
2022-10-20T15:26:02.972Z,20.20
2022-10-20T15:28:37.546Z,19.60
2022-10-20T15:31:16.008Z,18.80
2022-10-20T15:33:45.345Z,18.30
2022-10-20T15:36:16.122Z,17.20
2022-10-20T15:38:44.585Z,17.10
2022-10-20T15:41:16.201Z,16.90
2022-10-20T15:43:44.463Z,16.50
2022-10-20T15:46:14.053Z,16.00
2022-10-20T15:48:44.045Z,15.90
2022-10-20T15:51:19.481Z,15.80
2022-10-20T15:53:49.440Z,15.20
2022-10-20T15:56:17.598Z,15.20
2022-10-20T15:58:45.604Z,14.80
2022-10-20T16:01:14.118Z,14.30
2022-10-20T16:03:43.259Z,14.20
2022-10-20T16:06:14.380Z,14.00
2022-10-20T16:08:43.293Z,13.80
2022-10-20T16:11:12.340Z,13.80
2022-10-20T16:13:40.708Z,13.70
2022-10-20T16:16:12.903Z,13.90
2022-10-20T16:18:40.914Z,13.40
2022-10-20T16:21:09.040Z,13.30
2022-10-20T16:23:42.279Z,13.20
2022-10-20T16:26:15.047Z,13.10
2022-10-20T16:28:43.453Z,12.90
2022-10-20T16:31:14.123Z,13.00
2022-10-20T16:33:42.879Z,12.60
2022-10-20T16:36:14.767Z,12.80
2022-10-20T16:38:44.949Z,13.00
2022-10-20T16:41:15.882Z,12.80
2022-10-20T16:43:46.361Z,12.50
2022-10-20T16:46:16.400Z,12.50
2022-10-20T16:48:47.862Z,12.70
2022-10-20T16:51:17.482Z,12.60
2022-10-20T16:53:46.838Z,12.50
2022-10-20T16:56:18.195Z,12.70
2022-10-20T16:58:49.557Z,12.30
2022-10-20T17:01:20.762Z,12.40
2022-10-20T17:03:51.969Z,12.10
2022-10-20T17:06:23.490Z,12.20
2022-10-20T17:08:53.921Z,12.30
2022-10-20T17:11:25.700Z,12.10
2022-10-20T17:13:54.804Z,12.00
2022-10-20T17:16:27.732Z,12.00
2022-10-20T17:18:58.512Z,11.70
2022-10-20T17:21:27.672Z,11.70
2022-10-20T17:23:56.974Z,11.60
2022-10-20T17:26:28.292Z,11.70
2022-10-20T17:28:59.351Z,11.50
2022-10-20T17:31:27.949Z,11.50
2022-10-20T17:33:57.859Z,11.30
2022-10-20T17:36:27.704Z,11.30
2022-10-20T17:39:00.207Z,11.10
2022-10-20T17:41:28.561Z,11.60
2022-10-20T17:43:59.431Z,11.60
2022-10-20T17:46:27.619Z,11.10
2022-10-20T17:48:56.096Z,11.00
2022-10-20T17:51:29.137Z,10.80
2022-10-20T17:54:01.553Z,11.10
2022-10-20T17:56:32.635Z,10.70
2022-10-20T17:59:03.833Z,11.20
2022-10-20T18:01:34.322Z,11.10
2022-10-20T18:04:05.402Z,11.00
2022-10-20T18:06:36.019Z,11.30
2022-10-20T18:09:10.820Z,11.10
2022-10-20T18:11:41.231Z,11.10
2022-10-20T18:14:09.199Z,10.90
2022-10-20T18:16:40.056Z,11.10
2022-10-20T18:19:09.486Z,11.10
2022-10-20T18:21:37.472Z,11.30
2022-10-20T18:24:11.968Z,11.30
2022-10-20T18:26:40.612Z,11.00
2022-10-20T18:29:11.229Z,11.20
2022-10-20T18:31:42.318Z,10.90
2022-10-20T18:34:13.525Z,10.90
2022-10-20T18:36:45.114Z,10.90
2022-10-20T18:39:16.893Z,11.00
2022-10-20T18:41:46.317Z,10.90
2022-10-20T18:44:17.089Z,10.90
2022-10-20T18:46:46.471Z,10.80
2022-10-20T18:49:19.586Z,11.00
2022-10-20T18:51:48.825Z,10.90
2022-10-20T18:54:19.555Z,10.70
2022-10-20T18:56:47.613Z,11.00
2022-10-20T18:59:17.835Z,11.00
2022-10-20T19:01:48.180Z,10.80
2022-10-20T19:04:16.306Z,10.90
2022-10-20T19:06:46.556Z,11.10
2022-10-20T19:09:18.905Z,10.80
2022-10-20T19:14:22.026Z,10.90
2022-10-20T19:16:50.129Z,10.90
2022-10-20T19:19:18.311Z,10.80
2022-10-20T19:21:46.733Z,10.80
2022-10-20T19:24:19.273Z,10.90
2022-10-20T19:26:57.549Z,10.90
2022-10-20T19:29:36.606Z,11.00
2022-10-20T19:32:06.771Z,10.80
2022-10-20T19:34:37.882Z,10.90
2022-10-20T19:37:06.998Z,10.90
2022-10-20T19:39:39.387Z,11.10
2022-10-20T19:42:09.699Z,10.80
2022-10-20T19:44:39.017Z,10.80
2022-10-20T19:47:08.356Z,11.00
2022-10-20T19:49:37.440Z,11.10
2022-10-20T19:52:06.293Z,11.00
2022-10-20T19:54:35.900Z,10.80
2022-10-20T19:57:04.079Z,11.10
2022-10-20T19:59:32.053Z,10.90
2022-10-20T20:02:00.159Z,10.70
2022-10-20T20:04:28.345Z,10.60
2022-10-20T20:07:01.751Z,10.90
2022-10-20T20:09:30.854Z,10.70
2022-10-20T20:12:00.249Z,10.60
2022-10-20T20:14:28.350Z,10.60
2022-10-20T20:16:56.378Z,10.70
2022-10-20T20:19:24.415Z,10.50
2022-10-20T20:21:52.397Z,10.30
2022-10-20T20:24:20.440Z,10.50
2022-10-20T20:26:48.473Z,10.40
2022-10-20T20:29:17.833Z,10.40
2022-10-20T20:31:45.928Z,10.40
2022-10-20T20:34:13.860Z,10.40
2022-10-20T20:36:41.882Z,10.40
2022-10-20T20:39:10.719Z,10.40
2022-10-20T20:41:38.785Z,10.50
2022-10-20T20:44:08.417Z,10.60
2022-10-20T20:46:38.192Z,10.50
2022-10-20T20:49:06.832Z,10.50
2022-10-20T20:51:34.924Z,10.40
2022-10-20T20:54:03.559Z,10.70
2022-10-20T20:56:32.488Z,10.70
2022-10-20T20:59:00.499Z,10.50
